sensor_id;sensor_type;location;lat;lon;timestamp;temperature;humidity
31765;DHT22;18338;53.240;8.798;2022-10-29T00:00:55;14.50;99.90
31765;DHT22;18338;53.240;8.798;2022-10-29T00:03:22;14.70;99.90
31765;DHT22;18338;53.240;8.798;2022-10-29T00:06:01;14.70;99.90
31765;DHT22;18338;53.240;8.798;2022-10-29T00:08:29;14.70;99.90
31765;DHT22;18338;53.240;8.798;2022-10-29T00:11:04;14.70;99.90
31765;DHT22;18338;53.240;8.798;2022-10-29T00:13:32;14.70;99.90
31765;DHT22;18338;53.240;8.798;2022-10-29T00:15:58;14.70;99.90
31765;DHT22;18338;53.240;8.798;2022-10-29T00:18:25;14.70;99.90
31765;DHT22;18338;53.240;8.798;2022-10-29T00:20:59;14.70;99.90
31765;DHT22;18338;53.240;8.798;2022-10-29T00:23:26;14.80;99.90
31765;DHT22;18338;53.240;8.798;2022-10-29T00:25:57;14.80;99.90
31765;DHT22;18338;53.240;8.798;2022-10-29T00:28:25;14.90;99.90
31765;DHT22;18338;53.240;8.798;2022-10-29T00:30:52;14.90;99.90
31765;DHT22;18338;53.240;8.798;2022-10-29T00:33:19;14.90;99.90
31765;DHT22;18338;53.240;8.798;2022-10-29T00:36:00;14.90;99.90
31765;DHT22;18338;53.240;8.798;2022-10-29T00:38:28;14.90;99.90
31765;DHT22;18338;53.240;8.798;2022-10-29T00:40:55;14.80;99.90
31765;DHT22;18338;53.240;8.798;2022-10-29T00:43:24;14.80;99.90
31765;DHT22;18338;53.240;8.798;2022-10-29T00:46:04;14.70;99.90
31765;DHT22;18338;53.240;8.798;2022-10-29T00:48:35;14.70;99.90
31765;DHT22;18338;53.240;8.798;2022-10-29T00:51:04;14.80;99.90
31765;DHT22;18338;53.240;8.798;2022-10-29T00:53:35;14.90;99.90
31765;DHT22;18338;53.240;8.798;2022-10-29T00:56:04;14.80;99.90
31765;DHT22;18338;53.240;8.798;2022-10-29T00:58:31;14.70;99.90
31765;DHT22;18338;53.240;8.798;2022-10-29T01:00:58;14.70;99.90
31765;DHT22;18338;53.240;8.798;2022-10-29T01:03:25;14.80;99.90
31765;DHT22;18338;53.240;8.798;2022-10-29T01:05:53;14.80;99.90
31765;DHT22;18338;53.240;8.798;2022-10-29T01:08:19;14.80;99.90
31765;DHT22;18338;53.240;8.798;2022-10-29T01:11:02;14.70;99.90
31765;DHT22;18338;53.240;8.798;2022-10-29T01:24:31;14.40;99.90
31765;DHT22;18338;53.240;8.798;2022-10-29T01:35:17;14.30;99.90
31765;DHT22;18338;53.240;8.798;2022-10-29T01:44:00;14.30;99.90
31765;DHT22;18338;53.240;8.798;2022-10-29T01:46:38;14.30;99.90
31765;DHT22;18338;53.240;8.798;2022-10-29T01:49:12;14.30;99.90
31765;DHT22;18338;53.240;8.798;2022-10-29T01:51:40;14.40;99.90
31765;DHT22;18338;53.240;8.798;2022-10-29T01:54:10;14.50;99.90
31765;DHT22;18338;53.240;8.798;2022-10-29T01:56:37;14.60;99.90
31765;DHT22;18338;53.240;8.798;2022-10-29T01:59:07;14.50;99.90
31765;DHT22;18338;53.240;8.798;2022-10-29T02:02:14;14.50;99.90
31765;DHT22;18338;53.240;8.798;2022-10-29T02:05:15;14.40;99.90
31765;DHT22;18338;53.240;8.798;2022-10-29T02:07:54;14.40;99.90
31765;DHT22;18338;53.240;8.798;2022-10-29T02:10:25;14.30;99.90
31765;DHT22;18338;53.240;8.798;2022-10-29T02:12:54;14.20;99.90
31765;DHT22;18338;53.240;8.798;2022-10-29T02:18:03;14.00;99.90
31765;DHT22;18338;53.240;8.798;2022-10-29T02:20:30;13.90;99.90
31765;DHT22;18338;53.240;8.798;2022-10-29T02:22:57;13.80;99.90
31765;DHT22;18338;53.240;8.798;2022-10-29T02:25:24;13.90;99.90
31765;DHT22;18338;53.240;8.798;2022-10-29T02:27:51;13.80;99.90
31765;DHT22;18338;53.240;8.798;2022-10-29T02:30:18;13.70;99.90
31765;DHT22;18338;53.240;8.798;2022-10-29T02:32:45;13.70;99.90
31765;DHT22;18338;53.240;8.798;2022-10-29T02:35:11;13.70;99.90
31765;DHT22;18338;53.240;8.798;2022-10-29T02:37:38;13.70;99.90
31765;DHT22;18338;53.240;8.798;2022-10-29T02:40:05;13.60;99.90
31765;DHT22;18338;53.240;8.798;2022-10-29T02:42:32;13.50;99.90
31765;DHT22;18338;53.240;8.798;2022-10-29T02:44:59;13.40;99.90
31765;DHT22;18338;53.240;8.798;2022-10-29T02:47:25;13.30;99.90
31765;DHT22;18338;53.240;8.798;2022-10-29T02:49:53;13.20;99.90
31765;DHT22;18338;53.240;8.798;2022-10-29T02:52:20;13.20;99.90
31765;DHT22;18338;53.240;8.798;2022-10-29T02:54:46;13.20;99.90
31765;DHT22;18338;53.240;8.798;2022-10-29T02:57:13;13.10;99.90
31765;DHT22;18338;53.240;8.798;2022-10-29T02:59:40;12.90;99.90
31765;DHT22;18338;53.240;8.798;2022-10-29T03:02:06;12.90;99.90
31765;DHT22;18338;53.240;8.798;2022-10-29T03:04:33;12.90;99.90
31765;DHT22;18338;53.240;8.798;2022-10-29T03:07:01;12.90;99.90
31765;DHT22;18338;53.240;8.798;2022-10-29T03:09:28;12.80;99.90
31765;DHT22;18338;53.240;8.798;2022-10-29T03:11:54;12.70;99.90
31765;DHT22;18338;53.240;8.798;2022-10-29T03:14:21;12.70;99.90
31765;DHT22;18338;53.240;8.798;2022-10-29T03:16:48;12.90;99.90
31765;DHT22;18338;53.240;8.798;2022-10-29T03:19:14;12.70;99.90
31765;DHT22;18338;53.240;8.798;2022-10-29T03:21:41;12.50;99.90
31765;DHT22;18338;53.240;8.798;2022-10-29T03:24:08;12.40;99.90
31765;DHT22;18338;53.240;8.798;2022-10-29T03:26:34;12.40;99.90
31765;DHT22;18338;53.240;8.798;2022-10-29T03:29:01;12.50;99.90
31765;DHT22;18338;53.240;8.798;2022-10-29T03:31:28;12.60;99.90
31765;DHT22;18338;53.240;8.798;2022-10-29T03:33:55;12.70;99.90
31765;DHT22;18338;53.240;8.798;2022-10-29T03:36:21;12.80;99.90
31765;DHT22;18338;53.240;8.798;2022-10-29T03:38:48;13.10;99.90
31765;DHT22;18338;53.240;8.798;2022-10-29T03:41:15;13.30;99.90
31765;DHT22;18338;53.240;8.798;2022-10-29T03:43:42;13.50;99.90
31765;DHT22;18338;53.240;8.798;2022-10-29T03:46:08;13.60;99.90
31765;DHT22;18338;53.240;8.798;2022-10-29T03:48:35;13.60;99.90
31765;DHT22;18338;53.240;8.798;2022-10-29T03:51:04;13.70;99.90
31765;DHT22;18338;53.240;8.798;2022-10-29T03:53:32;13.70;99.90
31765;DHT22;18338;53.240;8.798;2022-10-29T03:56:00;13.70;99.90
31765;DHT22;18338;53.240;8.798;2022-10-29T03:58:27;13.70;99.90
31765;DHT22;18338;53.240;8.798;2022-10-29T04:03:25;13.70;99.90
31765;DHT22;18338;53.240;8.798;2022-10-29T04:05:52;13.80;99.90
31765;DHT22;18338;53.240;8.798;2022-10-29T04:08:19;13.80;99.90
31765;DHT22;18338;53.240;8.798;2022-10-29T04:10:47;13.80;99.90
31765;DHT22;18338;53.240;8.798;2022-10-29T04:13:14;13.90;99.90
31765;DHT22;18338;53.240;8.798;2022-10-29T04:15:41;13.80;99.90
31765;DHT22;18338;53.240;8.798;2022-10-29T04:18:09;13.80;99.90
31765;DHT22;18338;53.240;8.798;2022-10-29T04:20:37;13.80;99.90
31765;DHT22;18338;53.240;8.798;2022-10-29T04:23:24;13.80;99.90
31765;DHT22;18338;53.240;8.798;2022-10-29T04:26:11;13.70;99.90
31765;DHT22;18338;53.240;8.798;2022-10-29T04:28:57;13.70;99.90
31765;DHT22;18338;53.240;8.798;2022-10-29T04:31:24;13.80;99.90
31765;DHT22;18338;53.240;8.798;2022-10-29T04:33:54;13.80;99.90
31765;DHT22;18338;53.240;8.798;2022-10-29T04:36:21;13.70;99.90
31765;DHT22;18338;53.240;8.798;2022-10-29T04:38:49;13.70;99.90
31765;DHT22;18338;53.240;8.798;2022-10-29T04:41:15;13.60;99.90
31765;DHT22;18338;53.240;8.798;2022-10-29T04:43:42;13.60;99.90
31765;DHT22;18338;53.240;8.798;2022-10-29T04:46:09;13.60;99.90
31765;DHT22;18338;53.240;8.798;2022-10-29T04:48:36;13.50;99.90
31765;DHT22;18338;53.240;8.798;2022-10-29T04:51:03;13.40;99.90
31765;DHT22;18338;53.240;8.798;2022-10-29T04:53:30;13.20;99.90
31765;DHT22;18338;53.240;8.798;2022-10-29T04:56:00;13.20;99.90
31765;DHT22;18338;53.240;8.798;2022-10-29T04:58:28;13.00;99.90
31765;DHT22;18338;53.240;8.798;2022-10-29T05:01:02;13.00;99.90
31765;DHT22;18338;53.240;8.798;2022-10-29T05:03:31;12.90;99.90
31765;DHT22;18338;53.240;8.798;2022-10-29T05:06:01;12.80;99.90
31765;DHT22;18338;53.240;8.798;2022-10-29T05:08:28;12.80;99.90
31765;DHT22;18338;53.240;8.798;2022-10-29T05:10:55;12.70;99.90
31765;DHT22;18338;53.240;8.798;2022-10-29T05:13:23;12.70;99.90
31765;DHT22;18338;53.240;8.798;2022-10-29T05:15:58;12.80;99.90
31765;DHT22;18338;53.240;8.798;2022-10-29T05:18:24;12.70;99.90
31765;DHT22;18338;53.240;8.798;2022-10-29T05:20:52;12.60;99.90
31765;DHT22;18338;53.240;8.798;2022-10-29T05:23:20;12.50;99.90
31765;DHT22;18338;53.240;8.798;2022-10-29T05:25:53;12.40;99.90
31765;DHT22;18338;53.240;8.798;2022-10-29T05:28:24;12.30;99.90
31765;DHT22;18338;53.240;8.798;2022-10-29T05:31:04;12.40;99.90
31765;DHT22;18338;53.240;8.798;2022-10-29T05:33:31;12.30;99.90
31765;DHT22;18338;53.240;8.798;2022-10-29T05:35:59;12.30;99.90
31765;DHT22;18338;53.240;8.798;2022-10-29T05:38:28;12.20;99.90
31765;DHT22;18338;53.240;8.798;2022-10-29T05:40:59;12.20;99.90
31765;DHT22;18338;53.240;8.798;2022-10-29T05:43:26;12.10;99.90
31765;DHT22;18338;53.240;8.798;2022-10-29T05:45:53;12.20;99.90
31765;DHT22;18338;53.240;8.798;2022-10-29T05:48:20;12.30;99.90
31765;DHT22;18338;53.240;8.798;2022-10-29T05:50:47;12.20;99.90
31765;DHT22;18338;53.240;8.798;2022-10-29T05:53:14;12.10;99.90
31765;DHT22;18338;53.240;8.798;2022-10-29T05:55:41;12.00;99.90
31765;DHT22;18338;53.240;8.798;2022-10-29T05:58:11;11.90;99.90
31765;DHT22;18338;53.240;8.798;2022-10-29T06:00:42;11.70;99.90
31765;DHT22;18338;53.240;8.798;2022-10-29T06:03:16;11.50;99.90
31765;DHT22;18338;53.240;8.798;2022-10-29T06:05:59;11.40;99.90
31765;DHT22;18338;53.240;8.798;2022-10-29T06:08:26;11.20;99.90
31765;DHT22;18338;53.240;8.798;2022-10-29T06:10:54;11.10;99.90
31765;DHT22;18338;53.240;8.798;2022-10-29T06:13:21;11.00;99.90
31765;DHT22;18338;53.240;8.798;2022-10-29T06:15:49;10.90;99.90
31765;DHT22;18338;53.240;8.798;2022-10-29T06:18:15;10.80;99.90
31765;DHT22;18338;53.240;8.798;2022-10-29T06:20:42;11.00;99.90
31765;DHT22;18338;53.240;8.798;2022-10-29T06:23:10;11.10;99.90
31765;DHT22;18338;53.240;8.798;2022-10-29T06:25:37;11.20;99.90
31765;DHT22;18338;53.240;8.798;2022-10-29T06:28:09;11.20;99.90
31765;DHT22;18338;53.240;8.798;2022-10-29T06:30:38;11.20;99.90
31765;DHT22;18338;53.240;8.798;2022-10-29T06:33:04;11.20;99.90
31765;DHT22;18338;53.240;8.798;2022-10-29T06:35:32;11.20;99.90
31765;DHT22;18338;53.240;8.798;2022-10-29T06:38:00;11.20;99.90
31765;DHT22;18338;53.240;8.798;2022-10-29T06:40:29;11.20;99.90
31765;DHT22;18338;53.240;8.798;2022-10-29T06:43:02;11.20;99.90
31765;DHT22;18338;53.240;8.798;2022-10-29T06:45:30;11.20;99.90
31765;DHT22;18338;53.240;8.798;2022-10-29T06:47:57;11.30;99.90
31765;DHT22;18338;53.240;8.798;2022-10-29T06:50:26;11.40;99.90
31765;DHT22;18338;53.240;8.798;2022-10-29T06:53:00;11.50;99.90
31765;DHT22;18338;53.240;8.798;2022-10-29T06:55:28;11.50;99.90
31765;DHT22;18338;53.240;8.798;2022-10-29T06:57:59;11.60;99.90
31765;DHT22;18338;53.240;8.798;2022-10-29T07:00:27;11.70;99.90
31765;DHT22;18338;53.240;8.798;2022-10-29T07:02:54;11.70;99.90
31765;DHT22;18338;53.240;8.798;2022-10-29T07:05:23;11.80;99.90
31765;DHT22;18338;53.240;8.798;2022-10-29T07:07:57;11.80;99.90
31765;DHT22;18338;53.240;8.798;2022-10-29T07:10:26;11.80;99.90
31765;DHT22;18338;53.240;8.798;2022-10-29T07:12:54;11.90;99.90
31765;DHT22;18338;53.240;8.798;2022-10-29T07:15:21;11.90;99.90
31765;DHT22;18338;53.240;8.798;2022-10-29T07:18:01;12.00;99.90
31765;DHT22;18338;53.240;8.798;2022-10-29T07:20:31;12.00;99.90
31765;DHT22;18338;53.240;8.798;2022-10-29T07:22:58;12.00;99.90
31765;DHT22;18338;53.240;8.798;2022-10-29T07:25:26;12.10;99.90
31765;DHT22;18338;53.240;8.798;2022-10-29T07:27:54;12.20;99.90
31765;DHT22;18338;53.240;8.798;2022-10-29T07:30:22;12.30;99.90
31765;DHT22;18338;53.240;8.798;2022-10-29T07:32:48;12.30;99.90
31765;DHT22;18338;53.240;8.798;2022-10-29T07:35:15;12.40;99.90
31765;DHT22;18338;53.240;8.798;2022-10-29T07:37:42;12.40;99.90
31765;DHT22;18338;53.240;8.798;2022-10-29T07:40:09;12.50;99.90
31765;DHT22;18338;53.240;8.798;2022-10-29T07:42:36;12.60;99.90
31765;DHT22;18338;53.240;8.798;2022-10-29T07:45:03;12.70;99.90
31765;DHT22;18338;53.240;8.798;2022-10-29T07:47:30;12.70;99.90
31765;DHT22;18338;53.240;8.798;2022-10-29T07:49:57;12.80;99.90
31765;DHT22;18338;53.240;8.798;2022-10-29T07:52:24;12.80;99.90
31765;DHT22;18338;53.240;8.798;2022-10-29T07:54:51;12.90;99.90
31765;DHT22;18338;53.240;8.798;2022-10-29T07:57:18;12.90;99.90
31765;DHT22;18338;53.240;8.798;2022-10-29T07:59:44;13.10;99.90
31765;DHT22;18338;53.240;8.798;2022-10-29T08:02:12;13.20;99.90
31765;DHT22;18338;53.240;8.798;2022-10-29T08:04:39;13.60;99.90
31765;DHT22;18338;53.240;8.798;2022-10-29T08:07:06;13.60;99.90
31765;DHT22;18338;53.240;8.798;2022-10-29T08:09:32;13.60;99.90
31765;DHT22;18338;53.240;8.798;2022-10-29T08:12:03;13.50;99.90
31765;DHT22;18338;53.240;8.798;2022-10-29T08:14:33;13.70;99.90
31765;DHT22;18338;53.240;8.798;2022-10-29T08:17:16;13.80;99.90
31765;DHT22;18338;53.240;8.798;2022-10-29T08:20:15;14.00;99.90
31765;DHT22;18338;53.240;8.798;2022-10-29T08:22:45;14.20;99.90
31765;DHT22;18338;53.240;8.798;2022-10-29T08:25:26;14.40;99.90
31765;DHT22;18338;53.240;8.798;2022-10-29T08:27:57;14.70;99.90
31765;DHT22;18338;53.240;8.798;2022-10-29T08:30:25;14.80;99.90
31765;DHT22;18338;53.240;8.798;2022-10-29T08:32:52;14.80;99.90
31765;DHT22;18338;53.240;8.798;2022-10-29T08:35:19;14.50;99.90
31765;DHT22;18338;53.240;8.798;2022-10-29T08:37:46;14.50;99.90
31765;DHT22;18338;53.240;8.798;2022-10-29T08:40:29;14.50;99.90
31765;DHT22;18338;53.240;8.798;2022-10-29T08:43:07;14.60;99.90
31765;DHT22;18338;53.240;8.798;2022-10-29T08:45:46;14.60;99.90
31765;DHT22;18338;53.240;8.798;2022-10-29T08:48:27;14.80;99.90
31765;DHT22;18338;53.240;8.798;2022-10-29T08:53:47;15.00;99.90
31765;DHT22;18338;53.240;8.798;2022-10-29T08:56:42;15.00;99.90
31765;DHT22;18338;53.240;8.798;2022-10-29T08:59:14;15.00;99.90
31765;DHT22;18338;53.240;8.798;2022-10-29T09:01:55;15.20;99.90
31765;DHT22;18338;53.240;8.798;2022-10-29T09:10:03;15.40;99.90
31765;DHT22;18338;53.240;8.798;2022-10-29T09:13:04;15.60;99.90
31765;DHT22;18338;53.240;8.798;2022-10-29T09:16:00;15.80;99.90
31765;DHT22;18338;53.240;8.798;2022-10-29T09:18:56;15.90;99.90
31765;DHT22;18338;53.240;8.798;2022-10-29T09:21:32;15.90;99.90
31765;DHT22;18338;53.240;8.798;2022-10-29T09:24:20;15.90;99.90
31765;DHT22;18338;53.240;8.798;2022-10-29T09:26:58;16.00;99.90
31765;DHT22;18338;53.240;8.798;2022-10-29T09:29:58;16.00;99.90
31765;DHT22;18338;53.240;8.798;2022-10-29T09:35:31;16.30;99.90
31765;DHT22;18338;53.240;8.798;2022-10-29T09:41:11;16.60;99.90
31765;DHT22;18338;53.240;8.798;2022-10-29T09:44:09;17.00;99.90
31765;DHT22;18338;53.240;8.798;2022-10-29T09:52:38;17.90;99.90
31765;DHT22;18338;53.240;8.798;2022-10-29T09:55:06;18.20;99.90
31765;DHT22;18338;53.240;8.798;2022-10-29T09:57:39;18.40;99.90
31765;DHT22;18338;53.240;8.798;2022-10-29T10:00:15;18.70;99.90
31765;DHT22;18338;53.240;8.798;2022-10-29T10:02:44;19.00;99.90
31765;DHT22;18338;53.240;8.798;2022-10-29T10:05:17;19.20;99.90
31765;DHT22;18338;53.240;8.798;2022-10-29T10:10:34;21.50;99.90
31765;DHT22;18338;53.240;8.798;2022-10-29T10:13:03;22.30;99.90
31765;DHT22;18338;53.240;8.798;2022-10-29T10:15:33;23.00;99.90
31765;DHT22;18338;53.240;8.798;2022-10-29T10:20:41;24.80;99.90
31765;DHT22;18338;53.240;8.798;2022-10-29T10:29:15;23.40;99.90
31765;DHT22;18338;53.240;8.798;2022-10-29T10:31:49;23.80;99.90
31765;DHT22;18338;53.240;8.798;2022-10-29T10:34:36;24.30;99.90
31765;DHT22;18338;53.240;8.798;2022-10-29T10:37:15;24.10;99.90
31765;DHT22;18338;53.240;8.798;2022-10-29T10:39:59;23.70;99.90
31765;DHT22;18338;53.240;8.798;2022-10-29T10:42:32;23.20;99.90
31765;DHT22;18338;53.240;8.798;2022-10-29T10:47:52;22.50;99.90
31765;DHT22;18338;53.240;8.798;2022-10-29T10:50:29;22.30;99.90
31765;DHT22;18338;53.240;8.798;2022-10-29T10:52:58;22.00;99.90
31765;DHT22;18338;53.240;8.798;2022-10-29T10:55:26;21.70;99.90
31765;DHT22;18338;53.240;8.798;2022-10-29T10:58:00;21.40;99.90
31765;DHT22;18338;53.240;8.798;2022-10-29T11:00:41;21.30;99.90
31765;DHT22;18338;53.240;8.798;2022-10-29T11:03:20;21.40;99.90
31765;DHT22;18338;53.240;8.798;2022-10-29T11:08:33;22.50;99.90
31765;DHT22;18338;53.240;8.798;2022-10-29T11:11:14;23.40;99.90
31765;DHT22;18338;53.240;8.798;2022-10-29T11:13:44;23.20;99.90
31765;DHT22;18338;53.240;8.798;2022-10-29T11:16:37;22.70;99.90
31765;DHT22;18338;53.240;8.798;2022-10-29T11:22:27;21.70;99.90
31765;DHT22;18338;53.240;8.798;2022-10-29T11:25:12;21.30;99.90
31765;DHT22;18338;53.240;8.798;2022-10-29T11:27:52;21.30;99.90
31765;DHT22;18338;53.240;8.798;2022-10-29T11:30:21;21.30;99.90
31765;DHT22;18338;53.240;8.798;2022-10-29T11:33:15;21.60;99.90
31765;DHT22;18338;53.240;8.798;2022-10-29T11:35:44;22.10;99.90
31765;DHT22;18338;53.240;8.798;2022-10-29T11:38:25;22.60;99.90
31765;DHT22;18338;53.240;8.798;2022-10-29T11:41:03;23.10;99.90
31765;DHT22;18338;53.240;8.798;2022-10-29T11:43:31;23.60;99.90
31765;DHT22;18338;53.240;8.798;2022-10-29T11:52:11;23.70;99.90
31765;DHT22;18338;53.240;8.798;2022-10-29T11:57:31;23.20;99.90
31765;DHT22;18338;53.240;8.798;2022-10-29T12:00:19;22.80;99.90
31765;DHT22;18338;53.240;8.798;2022-10-29T12:19:49;20.80;99.90
31765;DHT22;18338;53.240;8.798;2022-10-29T12:22:50;20.80;99.90
31765;DHT22;18338;53.240;8.798;2022-10-29T12:36:30;21.30;99.90
31765;DHT22;18338;53.240;8.798;2022-10-29T12:38:59;21.50;99.90
31765;DHT22;18338;53.240;8.798;2022-10-29T12:41:32;22.20;99.90
31765;DHT22;18338;53.240;8.798;2022-10-29T12:44:34;23.30;99.90
31765;DHT22;18338;53.240;8.798;2022-10-29T12:47:19;24.60;99.90
31765;DHT22;18338;53.240;8.798;2022-10-29T12:50:15;27.20;99.90
31765;DHT22;18338;53.240;8.798;2022-10-29T12:55:15;29.30;99.90
31765;DHT22;18338;53.240;8.798;2022-10-29T12:57:42;30.60;99.90
31765;DHT22;18338;53.240;8.798;2022-10-29T13:02:53;32.50;99.70
31765;DHT22;18338;53.240;8.798;2022-10-29T13:05:42;33.20;97.10
31765;DHT22;18338;53.240;8.798;2022-10-29T13:08:17;32.20;97.30
31765;DHT22;18338;53.240;8.798;2022-10-29T13:10:48;30.70;99.00
31765;DHT22;18338;53.240;8.798;2022-10-29T13:20:42;27.40;99.90
31765;DHT22;18338;53.240;8.798;2022-10-29T13:25:55;31.20;99.90
31765;DHT22;18338;53.240;8.798;2022-10-29T13:30:50;33.60;95.70
31765;DHT22;18338;53.240;8.798;2022-10-29T13:41:42;30.70;98.40
31765;DHT22;18338;53.240;8.798;2022-10-29T13:44:24;31.40;98.00
31765;DHT22;18338;53.240;8.798;2022-10-29T13:46:57;32.30;97.30
31765;DHT22;18338;53.240;8.798;2022-10-29T13:52:13;32.10;95.40
31765;DHT22;18338;53.240;8.798;2022-10-29T13:54:50;31.10;97.50
31765;DHT22;18338;53.240;8.798;2022-10-29T13:57:22;31.40;97.90
31765;DHT22;18338;53.240;8.798;2022-10-29T13:59:54;31.60;96.80
31765;DHT22;18338;53.240;8.798;2022-10-29T14:02:33;32.10;96.60
31765;DHT22;18338;53.240;8.798;2022-10-29T14:10:30;30.90;96.70
31765;DHT22;18338;53.240;8.798;2022-10-29T14:13:06;29.20;99.70
31765;DHT22;18338;53.240;8.798;2022-10-29T14:15:36;27.70;99.90
31765;DHT22;18338;53.240;8.798;2022-10-29T14:18:24;26.40;99.90
31765;DHT22;18338;53.240;8.798;2022-10-29T14:20:55;25.50;99.90
31765;DHT22;18338;53.240;8.798;2022-10-29T14:23:22;24.70;99.90
31765;DHT22;18338;53.240;8.798;2022-10-29T14:25:51;24.20;99.90
31765;DHT22;18338;53.240;8.798;2022-10-29T14:28:29;23.70;99.90
31765;DHT22;18338;53.240;8.798;2022-10-29T14:31:13;23.30;99.90
31765;DHT22;18338;53.240;8.798;2022-10-29T14:33:42;23.10;99.90
31765;DHT22;18338;53.240;8.798;2022-10-29T14:39:34;22.70;99.90
31765;DHT22;18338;53.240;8.798;2022-10-29T14:42:30;22.80;99.90
31765;DHT22;18338;53.240;8.798;2022-10-29T14:45:01;22.70;99.90
31765;DHT22;18338;53.240;8.798;2022-10-29T14:47:34;22.50;99.90
31765;DHT22;18338;53.240;8.798;2022-10-29T14:50:10;22.50;99.90
31765;DHT22;18338;53.240;8.798;2022-10-29T14:52:44;22.40;99.90
31765;DHT22;18338;53.240;8.798;2022-10-29T14:55:21;22.20;99.90
31765;DHT22;18338;53.240;8.798;2022-10-29T14:58:04;22.10;99.90
31765;DHT22;18338;53.240;8.798;2022-10-29T15:00:34;22.00;99.90
31765;DHT22;18338;53.240;8.798;2022-10-29T15:03:05;21.90;99.90
31765;DHT22;18338;53.240;8.798;2022-10-29T15:05:35;21.80;99.90
31765;DHT22;18338;53.240;8.798;2022-10-29T15:08:14;21.70;99.90
31765;DHT22;18338;53.240;8.798;2022-10-29T15:10:54;21.60;99.90
31765;DHT22;18338;53.240;8.798;2022-10-29T15:16:07;21.30;99.90
31765;DHT22;18338;53.240;8.798;2022-10-29T15:18:36;21.10;99.90
31765;DHT22;18338;53.240;8.798;2022-10-29T15:21:05;20.80;99.90
31765;DHT22;18338;53.240;8.798;2022-10-29T15:23:34;20.70;99.90
31765;DHT22;18338;53.240;8.798;2022-10-29T15:26:10;20.60;99.90
31765;DHT22;18338;53.240;8.798;2022-10-29T15:28:44;20.40;99.90
31765;DHT22;18338;53.240;8.798;2022-10-29T15:31:33;20.20;99.90
31765;DHT22;18338;53.240;8.798;2022-10-29T15:34:14;20.00;99.90
31765;DHT22;18338;53.240;8.798;2022-10-29T15:36:52;19.80;99.90
31765;DHT22;18338;53.240;8.798;2022-10-29T15:41:55;19.10;99.90
31765;DHT22;18338;53.240;8.798;2022-10-29T15:44:28;18.80;99.90
31765;DHT22;18338;53.240;8.798;2022-10-29T15:46:57;18.50;99.90
31765;DHT22;18338;53.240;8.798;2022-10-29T15:49:25;18.20;99.90
31765;DHT22;18338;53.240;8.798;2022-10-29T15:51:58;18.00;99.90
31765;DHT22;18338;53.240;8.798;2022-10-29T15:54:26;17.80;99.90
31765;DHT22;18338;53.240;8.798;2022-10-29T15:56:53;17.60;99.90
31765;DHT22;18338;53.240;8.798;2022-10-29T15:59:23;17.50;99.90
31765;DHT22;18338;53.240;8.798;2022-10-29T16:01:51;17.40;99.90
31765;DHT22;18338;53.240;8.798;2022-10-29T16:04:18;17.30;99.90
31765;DHT22;18338;53.240;8.798;2022-10-29T16:06:45;17.20;99.90
31765;DHT22;18338;53.240;8.798;2022-10-29T16:09:17;17.00;99.90
31765;DHT22;18338;53.240;8.798;2022-10-29T16:11:45;16.90;99.90
31765;DHT22;18338;53.240;8.798;2022-10-29T16:14:12;16.70;99.90
31765;DHT22;18338;53.240;8.798;2022-10-29T16:16:38;16.60;99.90
31765;DHT22;18338;53.240;8.798;2022-10-29T16:19:05;16.40;99.90
31765;DHT22;18338;53.240;8.798;2022-10-29T16:21:32;16.30;99.90
31765;DHT22;18338;53.240;8.798;2022-10-29T16:24:00;16.20;99.90
31765;DHT22;18338;53.240;8.798;2022-10-29T16:26:26;16.10;99.90
31765;DHT22;18338;53.240;8.798;2022-10-29T16:28:53;16.00;99.90
31765;DHT22;18338;53.240;8.798;2022-10-29T16:31:23;16.00;99.90
31765;DHT22;18338;53.240;8.798;2022-10-29T16:33:57;15.90;99.90
31765;DHT22;18338;53.240;8.798;2022-10-29T16:36:25;15.80;99.90
31765;DHT22;18338;53.240;8.798;2022-10-29T16:38:51;15.80;99.90
31765;DHT22;18338;53.240;8.798;2022-10-29T16:41:19;15.80;99.90
31765;DHT22;18338;53.240;8.798;2022-10-29T16:43:46;15.80;99.90
31765;DHT22;18338;53.240;8.798;2022-10-29T16:46:14;15.80;99.90
31765;DHT22;18338;53.240;8.798;2022-10-29T16:48:40;15.80;99.90
31765;DHT22;18338;53.240;8.798;2022-10-29T16:51:08;15.80;99.90
31765;DHT22;18338;53.240;8.798;2022-10-29T16:53:35;15.70;99.90
31765;DHT22;18338;53.240;8.798;2022-10-29T16:56:01;15.70;99.90
31765;DHT22;18338;53.240;8.798;2022-10-29T16:58:28;15.70;99.90
31765;DHT22;18338;53.240;8.798;2022-10-29T17:01:06;15.60;99.90
31765;DHT22;18338;53.240;8.798;2022-10-29T17:03:34;15.50;99.90
31765;DHT22;18338;53.240;8.798;2022-10-29T17:06:03;15.50;99.90
31765;DHT22;18338;53.240;8.798;2022-10-29T17:08:32;15.50;99.90
31765;DHT22;18338;53.240;8.798;2022-10-29T17:11:00;15.50;99.90
31765;DHT22;18338;53.240;8.798;2022-10-29T17:13:27;15.40;99.90
31765;DHT22;18338;53.240;8.798;2022-10-29T17:15:54;15.40;99.90
31765;DHT22;18338;53.240;8.798;2022-10-29T17:18:21;15.40;99.90
31765;DHT22;18338;53.240;8.798;2022-10-29T17:20:56;15.30;99.90
31765;DHT22;18338;53.240;8.798;2022-10-29T17:23:24;15.20;99.90
31765;DHT22;18338;53.240;8.798;2022-10-29T17:25:52;15.10;99.90
31765;DHT22;18338;53.240;8.798;2022-10-29T17:28:23;15.00;99.90
31765;DHT22;18338;53.240;8.798;2022-10-29T17:30:50;15.00;99.90
31765;DHT22;18338;53.240;8.798;2022-10-29T17:33:17;14.90;99.90
31765;DHT22;18338;53.240;8.798;2022-10-29T17:35:44;14.90;99.90
31765;DHT22;18338;53.240;8.798;2022-10-29T17:38:11;14.80;99.90
31765;DHT22;18338;53.240;8.798;2022-10-29T17:40:38;14.70;99.90
31765;DHT22;18338;53.240;8.798;2022-10-29T17:43:04;14.70;99.90
31765;DHT22;18338;53.240;8.798;2022-10-29T17:45:31;14.60;99.90
31765;DHT22;18338;53.240;8.798;2022-10-29T17:47:58;14.70;99.90
31765;DHT22;18338;53.240;8.798;2022-10-29T17:50:25;14.70;99.90
31765;DHT22;18338;53.240;8.798;2022-10-29T17:52:53;14.70;99.90
31765;DHT22;18338;53.240;8.798;2022-10-29T17:55:19;14.70;99.90
31765;DHT22;18338;53.240;8.798;2022-10-29T17:57:46;14.60;99.90
31765;DHT22;18338;53.240;8.798;2022-10-29T18:00:13;14.60;99.90
31765;DHT22;18338;53.240;8.798;2022-10-29T18:02:40;14.70;99.90
31765;DHT22;18338;53.240;8.798;2022-10-29T18:05:07;14.70;99.90
31765;DHT22;18338;53.240;8.798;2022-10-29T18:07:34;14.70;99.90
31765;DHT22;18338;53.240;8.798;2022-10-29T18:10:00;14.70;99.90
31765;DHT22;18338;53.240;8.798;2022-10-29T18:12:27;14.60;99.90
31765;DHT22;18338;53.240;8.798;2022-10-29T18:14:53;14.60;99.90
31765;DHT22;18338;53.240;8.798;2022-10-29T18:17:20;14.60;99.90
31765;DHT22;18338;53.240;8.798;2022-10-29T18:19:47;14.70;99.90
31765;DHT22;18338;53.240;8.798;2022-10-29T18:22:13;14.70;99.90
31765;DHT22;18338;53.240;8.798;2022-10-29T18:24:40;14.60;99.90
31765;DHT22;18338;53.240;8.798;2022-10-29T18:27:07;14.60;99.90